sensor_id;sensor_type;location;lat;lon;timestamp;pressure;altitude;pressure_sealevel;temperature
19040;BMP180;9652;49.014;12.052;2023-08-08T00:01:15;97936.00;;;14.10
19040;BMP180;9652;49.014;12.052;2023-08-08T00:03:43;97937.00;;;14.10
19040;BMP180;9652;49.014;12.052;2023-08-08T00:06:10;97939.00;;;14.10
19040;BMP180;9652;49.014;12.052;2023-08-08T00:08:37;97932.00;;;14.00
19040;BMP180;9652;49.014;12.052;2023-08-08T00:11:05;97920.00;;;14.00
19040;BMP180;9652;49.014;12.052;2023-08-08T00:13:32;97911.00;;;14.00
19040;BMP180;9652;49.014;12.052;2023-08-08T00:15:59;97926.00;;;14.00
19040;BMP180;9652;49.014;12.052;2023-08-08T00:18:26;97924.00;;;13.90
19040;BMP180;9652;49.014;12.052;2023-08-08T00:20:54;97914.00;;;13.90
19040;BMP180;9652;49.014;12.052;2023-08-08T00:23:21;97930.00;;;13.90
19040;BMP180;9652;49.014;12.052;2023-08-08T00:25:48;97918.00;;;13.90
19040;BMP180;9652;49.014;12.052;2023-08-08T00:28:17;97922.00;;;13.90
19040;BMP180;9652;49.014;12.052;2023-08-08T00:30:44;97917.00;;;13.90
19040;BMP180;9652;49.014;12.052;2023-08-08T00:33:11;97909.00;;;13.90
19040;BMP180;9652;49.014;12.052;2023-08-08T00:35:38;97919.00;;;13.90
19040;BMP180;9652;49.014;12.052;2023-08-08T00:38:07;97907.00;;;13.90
19040;BMP180;9652;49.014;12.052;2023-08-08T00:40:34;97920.00;;;13.80
19040;BMP180;9652;49.014;12.052;2023-08-08T00:43:01;97923.00;;;13.80
19040;BMP180;9652;49.014;12.052;2023-08-08T00:45:30;97915.00;;;13.80
19040;BMP180;9652;49.014;12.052;2023-08-08T00:47:57;97864.00;;;13.80
19040;BMP180;9652;49.014;12.052;2023-08-08T00:50:24;97904.00;;;13.80
19040;BMP180;9652;49.014;12.052;2023-08-08T00:52:52;97914.00;;;13.80
19040;BMP180;9652;49.014;12.052;2023-08-08T00:55:21;97868.00;;;13.80
19040;BMP180;9652;49.014;12.052;2023-08-08T00:57:48;97901.00;;;13.80
19040;BMP180;9652;49.014;12.052;2023-08-08T01:00:16;97907.00;;;13.80
19040;BMP180;9652;49.014;12.052;2023-08-08T01:02:43;97902.00;;;13.80
19040;BMP180;9652;49.014;12.052;2023-08-08T01:05:11;97913.00;;;13.80
19040;BMP180;9652;49.014;12.052;2023-08-08T01:07:44;97908.00;;;13.80
19040;BMP180;9652;49.014;12.052;2023-08-08T01:10:17;97909.00;;;13.90
19040;BMP180;9652;49.014;12.052;2023-08-08T01:12:53;97914.00;;;13.90
19040;BMP180;9652;49.014;12.052;2023-08-08T01:15:21;97901.00;;;13.90
19040;BMP180;9652;49.014;12.052;2023-08-08T01:17:50;97901.00;;;14.00
19040;BMP180;9652;49.014;12.052;2023-08-08T01:20:18;97867.00;;;14.10
19040;BMP180;9652;49.014;12.052;2023-08-08T01:23:03;97908.00;;;14.10
19040;BMP180;9652;49.014;12.052;2023-08-08T01:25:35;97898.00;;;14.10
19040;BMP180;9652;49.014;12.052;2023-08-08T01:28:03;97892.00;;;14.20
19040;BMP180;9652;49.014;12.052;2023-08-08T01:30:31;97901.00;;;14.20
19040;BMP180;9652;49.014;12.052;2023-08-08T01:33:00;97898.00;;;14.30
19040;BMP180;9652;49.014;12.052;2023-08-08T01:35:37;97875.00;;;14.30
19040;BMP180;9652;49.014;12.052;2023-08-08T01:38:11;97902.00;;;14.40
19040;BMP180;9652;49.014;12.052;2023-08-08T01:40:44;97895.00;;;14.40
19040;BMP180;9652;49.014;12.052;2023-08-08T01:43:13;97887.00;;;14.40
19040;BMP180;9652;49.014;12.052;2023-08-08T01:45:42;97893.00;;;14.50
19040;BMP180;9652;49.014;12.052;2023-08-08T01:48:11;97893.00;;;14.50
19040;BMP180;9652;49.014;12.052;2023-08-08T01:50:38;97897.00;;;14.50
19040;BMP180;9652;49.014;12.052;2023-08-08T01:53:05;97895.00;;;14.60
19040;BMP180;9652;49.014;12.052;2023-08-08T01:55:33;97890.00;;;14.60
19040;BMP180;9652;49.014;12.052;2023-08-08T01:58:02;97877.00;;;14.60
19040;BMP180;9652;49.014;12.052;2023-08-08T02:00:29;97887.00;;;14.70
19040;BMP180;9652;49.014;12.052;2023-08-08T02:02:56;97855.00;;;14.70
19040;BMP180;9652;49.014;12.052;2023-08-08T02:05:24;97886.00;;;14.80
19040;BMP180;9652;49.014;12.052;2023-08-08T02:07:51;97881.00;;;14.80
19040;BMP180;9652;49.014;12.052;2023-08-08T02:10:18;97881.00;;;14.80
19040;BMP180;9652;49.014;12.052;2023-08-08T02:12:46;97890.00;;;14.90
19040;BMP180;9652;49.014;12.052;2023-08-08T02:15:14;97890.00;;;14.90
19040;BMP180;9652;49.014;12.052;2023-08-08T02:17:42;97876.00;;;14.90
19040;BMP180;9652;49.014;12.052;2023-08-08T02:20:11;97882.00;;;15.00
19040;BMP180;9652;49.014;12.052;2023-08-08T02:22:40;97894.00;;;15.00
19040;BMP180;9652;49.014;12.052;2023-08-08T02:25:08;97887.00;;;15.00
19040;BMP180;9652;49.014;12.052;2023-08-08T02:27:35;97888.00;;;15.00
19040;BMP180;9652;49.014;12.052;2023-08-08T02:30:03;97883.00;;;15.00
19040;BMP180;9652;49.014;12.052;2023-08-08T02:32:32;97824.00;;;15.10
19040;BMP180;9652;49.014;12.052;2023-08-08T02:34:59;97881.00;;;15.10
19040;BMP180;9652;49.014;12.052;2023-08-08T02:37:26;97880.00;;;15.10
19040;BMP180;9652;49.014;12.052;2023-08-08T02:39:53;97876.00;;;15.10
19040;BMP180;9652;49.014;12.052;2023-08-08T02:42:20;97857.00;;;15.20
19040;BMP180;9652;49.014;12.052;2023-08-08T02:44:48;97868.00;;;15.20
19040;BMP180;9652;49.014;12.052;2023-08-08T02:47:15;97869.00;;;15.20
19040;BMP180;9652;49.014;12.052;2023-08-08T02:49:43;97835.00;;;15.20
19040;BMP180;9652;49.014;12.052;2023-08-08T02:52:11;97861.00;;;15.20
19040;BMP180;9652;49.014;12.052;2023-08-08T02:54:38;97862.00;;;15.20
19040;BMP180;9652;49.014;12.052;2023-08-08T02:57:06;97841.00;;;15.30
19040;BMP180;9652;49.014;12.052;2023-08-08T02:59:36;97868.00;;;15.30
19040;BMP180;9652;49.014;12.052;2023-08-08T03:02:05;97869.00;;;15.30
19040;BMP180;9652;49.014;12.052;2023-08-08T03:04:34;97863.00;;;15.30
19040;BMP180;9652;49.014;12.052;2023-08-08T03:07:06;97866.00;;;15.30
19040;BMP180;9652;49.014;12.052;2023-08-08T03:09:35;97872.00;;;15.30
19040;BMP180;9652;49.014;12.052;2023-08-08T03:12:03;97820.00;;;15.30
19040;BMP180;9652;49.014;12.052;2023-08-08T03:14:33;97882.00;;;15.30
19040;BMP180;9652;49.014;12.052;2023-08-08T03:17:01;97881.00;;;15.30
19040;BMP180;9652;49.014;12.052;2023-08-08T03:19:28;97878.00;;;15.30
19040;BMP180;9652;49.014;12.052;2023-08-08T03:21:57;97879.00;;;15.30
19040;BMP180;9652;49.014;12.052;2023-08-08T03:24:26;97886.00;;;15.30
19040;BMP180;9652;49.014;12.052;2023-08-08T03:26:54;97881.00;;;15.30
19040;BMP180;9652;49.014;12.052;2023-08-08T03:29:21;97869.00;;;15.30
19040;BMP180;9652;49.014;12.052;2023-08-08T03:31:49;97876.00;;;15.30
19040;BMP180;9652;49.014;12.052;2023-08-08T03:34:17;97876.00;;;15.30
19040;BMP180;9652;49.014;12.052;2023-08-08T03:36:44;97867.00;;;15.30
19040;BMP180;9652;49.014;12.052;2023-08-08T03:39:12;97866.00;;;15.30
19040;BMP180;9652;49.014;12.052;2023-08-08T03:41:40;97866.00;;;15.30
19040;BMP180;9652;49.014;12.052;2023-08-08T03:44:07;97871.00;;;15.30
19040;BMP180;9652;49.014;12.052;2023-08-08T03:46:34;97867.00;;;15.30
19040;BMP180;9652;49.014;12.052;2023-08-08T03:49:01;97860.00;;;15.30
19040;BMP180;9652;49.014;12.052;2023-08-08T03:51:28;97877.00;;;15.30
19040;BMP180;9652;49.014;12.052;2023-08-08T03:53:56;97876.00;;;15.30
19040;BMP180;9652;49.014;12.052;2023-08-08T03:56:24;97877.00;;;15.30
19040;BMP180;9652;49.014;12.052;2023-08-08T03:58:52;97826.00;;;15.30
19040;BMP180;9652;49.014;12.052;2023-08-08T04:01:19;97872.00;;;15.40
19040;BMP180;9652;49.014;12.052;2023-08-08T04:03:46;97880.00;;;15.40
19040;BMP180;9652;49.014;12.052;2023-08-08T04:06:13;97874.00;;;15.40
19040;BMP180;9652;49.014;12.052;2023-08-08T04:08:40;97867.00;;;15.40
19040;BMP180;9652;49.014;12.052;2023-08-08T04:11:08;97868.00;;;15.30
19040;BMP180;9652;49.014;12.052;2023-08-08T04:13:35;97867.00;;;15.30
19040;BMP180;9652;49.014;12.052;2023-08-08T04:16:04;97879.00;;;15.30
19040;BMP180;9652;49.014;12.052;2023-08-08T04:18:31;97886.00;;;15.30
19040;BMP180;9652;49.014;12.052;2023-08-08T04:20:58;97888.00;;;15.30
19040;BMP180;9652;49.014;12.052;2023-08-08T04:23:25;97885.00;;;15.20
19040;BMP180;9652;49.014;12.052;2023-08-08T04:25:52;97886.00;;;15.20
19040;BMP180;9652;49.014;12.052;2023-08-08T04:28:20;97886.00;;;15.20
19040;BMP180;9652;49.014;12.052;2023-08-08T04:30:47;97882.00;;;15.20
19040;BMP180;9652;49.014;12.052;2023-08-08T04:33:15;97880.00;;;15.20
19040;BMP180;9652;49.014;12.052;2023-08-08T04:35:42;97885.00;;;15.20
19040;BMP180;9652;49.014;12.052;2023-08-08T04:38:09;97859.00;;;15.20
19040;BMP180;9652;49.014;12.052;2023-08-08T04:40:36;97898.00;;;15.20
19040;BMP180;9652;49.014;12.052;2023-08-08T04:43:04;97902.00;;;15.20
19040;BMP180;9652;49.014;12.052;2023-08-08T04:45:31;97903.00;;;15.10
19040;BMP180;9652;49.014;12.052;2023-08-08T04:47:58;97900.00;;;15.20
19040;BMP180;9652;49.014;12.052;2023-08-08T04:50:26;97903.00;;;15.10
19040;BMP180;9652;49.014;12.052;2023-08-08T04:52:54;97900.00;;;15.10
19040;BMP180;9652;49.014;12.052;2023-08-08T04:55:21;97907.00;;;15.10
19040;BMP180;9652;49.014;12.052;2023-08-08T04:57:48;97910.00;;;15.10
19040;BMP180;9652;49.014;12.052;2023-08-08T05:00:15;97898.00;;;15.10
19040;BMP180;9652;49.014;12.052;2023-08-08T05:02:42;97901.00;;;15.10
19040;BMP180;9652;49.014;12.052;2023-08-08T05:05:09;97910.00;;;15.20
19040;BMP180;9652;49.014;12.052;2023-08-08T05:07:38;97906.00;;;15.10
19040;BMP180;9652;49.014;12.052;2023-08-08T05:10:06;97907.00;;;15.10
19040;BMP180;9652;49.014;12.052;2023-08-08T05:12:33;97899.00;;;15.10
19040;BMP180;9652;49.014;12.052;2023-08-08T05:15:00;97905.00;;;15.10
19040;BMP180;9652;49.014;12.052;2023-08-08T05:17:30;97901.00;;;15.00
19040;BMP180;9652;49.014;12.052;2023-08-08T05:19:58;97895.00;;;15.00
19040;BMP180;9652;49.014;12.052;2023-08-08T05:22:25;97911.00;;;15.00
19040;BMP180;9652;49.014;12.052;2023-08-08T05:24:53;97915.00;;;15.00
19040;BMP180;9652;49.014;12.052;2023-08-08T05:27:20;97906.00;;;15.00
19040;BMP180;9652;49.014;12.052;2023-08-08T05:29:47;97913.00;;;15.00
19040;BMP180;9652;49.014;12.052;2023-08-08T05:32:14;97920.00;;;15.10
19040;BMP180;9652;49.014;12.052;2023-08-08T05:34:42;97924.00;;;15.10
19040;BMP180;9652;49.014;12.052;2023-08-08T05:37:09;97912.00;;;14.90
19040;BMP180;9652;49.014;12.052;2023-08-08T05:39:36;97904.00;;;15.20
19040;BMP180;9652;49.014;12.052;2023-08-08T05:42:05;97895.00;;;15.20
19040;BMP180;9652;49.014;12.052;2023-08-08T05:44:32;97906.00;;;15.30
19040;BMP180;9652;49.014;12.052;2023-08-08T05:46:59;97904.00;;;15.30
19040;BMP180;9652;49.014;12.052;2023-08-08T05:49:26;97912.00;;;15.40
19040;BMP180;9652;49.014;12.052;2023-08-08T05:51:53;97902.00;;;15.40
19040;BMP180;9652;49.014;12.052;2023-08-08T05:54:20;97914.00;;;15.40
19040;BMP180;9652;49.014;12.052;2023-08-08T05:56:47;97915.00;;;15.50
19040;BMP180;9652;49.014;12.052;2023-08-08T05:59:16;97914.00;;;15.50
19040;BMP180;9652;49.014;12.052;2023-08-08T06:01:43;97907.00;;;15.60
19040;BMP180;9652;49.014;12.052;2023-08-08T06:04:10;97911.00;;;15.70
19040;BMP180;9652;49.014;12.052;2023-08-08T06:06:38;97911.00;;;15.80
19040;BMP180;9652;49.014;12.052;2023-08-08T06:09:05;97916.00;;;15.90
19040;BMP180;9652;49.014;12.052;2023-08-08T06:11:32;97909.00;;;15.90
19040;BMP180;9652;49.014;12.052;2023-08-08T06:13:59;97921.00;;;15.90
19040;BMP180;9652;49.014;12.052;2023-08-08T06:16:27;97914.00;;;16.00
19040;BMP180;9652;49.014;12.052;2023-08-08T06:18:55;97900.00;;;16.00
19040;BMP180;9652;49.014;12.052;2023-08-08T06:21:22;97912.00;;;16.10
19040;BMP180;9652;49.014;12.052;2023-08-08T06:23:49;97911.00;;;16.10
19040;BMP180;9652;49.014;12.052;2023-08-08T06:26:18;97907.00;;;16.10
19040;BMP180;9652;49.014;12.052;2023-08-08T06:28:47;97902.00;;;16.20
19040;BMP180;9652;49.014;12.052;2023-08-08T06:31:14;97900.00;;;16.20
19040;BMP180;9652;49.014;12.052;2023-08-08T06:33:43;97885.00;;;16.30
19040;BMP180;9652;49.014;12.052;2023-08-08T06:36:10;97887.00;;;16.40
19040;BMP180;9652;49.014;12.052;2023-08-08T06:38:37;97880.00;;;16.40
19040;BMP180;9652;49.014;12.052;2023-08-08T06:41:04;97868.00;;;16.50
19040;BMP180;9652;49.014;12.052;2023-08-08T06:43:31;97884.00;;;16.60
19040;BMP180;9652;49.014;12.052;2023-08-08T06:45:58;97878.00;;;16.70
19040;BMP180;9652;49.014;12.052;2023-08-08T06:48:26;97880.00;;;16.80
19040;BMP180;9652;49.014;12.052;2023-08-08T06:50:55;97880.00;;;16.80
19040;BMP180;9652;49.014;12.052;2023-08-08T06:53:23;97883.00;;;16.90
19040;BMP180;9652;49.014;12.052;2023-08-08T06:55:50;97890.00;;;17.00
19040;BMP180;9652;49.014;12.052;2023-08-08T06:58:17;97888.00;;;17.10
19040;BMP180;9652;49.014;12.052;2023-08-08T07:00:44;97879.00;;;17.20
19040;BMP180;9652;49.014;12.052;2023-08-08T07:03:11;97882.00;;;17.20
19040;BMP180;9652;49.014;12.052;2023-08-08T07:05:38;97891.00;;;17.30
19040;BMP180;9652;49.014;12.052;2023-08-08T07:08:07;97887.00;;;17.40
19040;BMP180;9652;49.014;12.052;2023-08-08T07:10:34;97875.00;;;17.50
19040;BMP180;9652;49.014;12.052;2023-08-08T07:13:02;97873.00;;;17.60
19040;BMP180;9652;49.014;12.052;2023-08-08T07:15:29;97880.00;;;17.70
19040;BMP180;9652;49.014;12.052;2023-08-08T07:17:56;97868.00;;;17.80
19040;BMP180;9652;49.014;12.052;2023-08-08T07:20:23;97872.00;;;17.80
19040;BMP180;9652;49.014;12.052;2023-08-08T07:22:51;97871.00;;;17.90
19040;BMP180;9652;49.014;12.052;2023-08-08T07:25:19;97878.00;;;18.00
19040;BMP180;9652;49.014;12.052;2023-08-08T07:27:46;97864.00;;;18.10
19040;BMP180;9652;49.014;12.052;2023-08-08T07:30:13;97884.00;;;18.20
19040;BMP180;9652;49.014;12.052;2023-08-08T07:32:41;97863.00;;;18.30
19040;BMP180;9652;49.014;12.052;2023-08-08T07:35:08;97875.00;;;18.40
19040;BMP180;9652;49.014;12.052;2023-08-08T07:37:36;97866.00;;;18.50
19040;BMP180;9652;49.014;12.052;2023-08-08T07:40:14;97860.00;;;18.60
19040;BMP180;9652;49.014;12.052;2023-08-08T07:42:45;97855.00;;;18.80
19040;BMP180;9652;49.014;12.052;2023-08-08T07:45:12;97866.00;;;18.90
19040;BMP180;9652;49.014;12.052;2023-08-08T07:47:40;97868.00;;;19.10
19040;BMP180;9652;49.014;12.052;2023-08-08T07:50:08;97863.00;;;19.20
19040;BMP180;9652;49.014;12.052;2023-08-08T07:52:35;97877.00;;;19.30
19040;BMP180;9652;49.014;12.052;2023-08-08T07:55:02;97863.00;;;19.40
19040;BMP180;9652;49.014;12.052;2023-08-08T07:57:31;97890.00;;;19.60
19040;BMP180;9652;49.014;12.052;2023-08-08T08:00:02;97881.00;;;19.70
19040;BMP180;9652;49.014;12.052;2023-08-08T08:02:38;97874.00;;;19.80
19040;BMP180;9652;49.014;12.052;2023-08-08T08:05:06;97874.00;;;20.00
19040;BMP180;9652;49.014;12.052;2023-08-08T08:07:34;97879.00;;;20.10
19040;BMP180;9652;49.014;12.052;2023-08-08T08:10:02;97864.00;;;20.20
19040;BMP180;9652;49.014;12.052;2023-08-08T08:12:30;97868.00;;;20.30
19040;BMP180;9652;49.014;12.052;2023-08-08T08:14:58;97872.00;;;20.40
19040;BMP180;9652;49.014;12.052;2023-08-08T08:17:27;97867.00;;;20.40
19040;BMP180;9652;49.014;12.052;2023-08-08T08:19:54;97867.00;;;20.50
19040;BMP180;9652;49.014;12.052;2023-08-08T08:22:21;97871.00;;;20.50
19040;BMP180;9652;49.014;12.052;2023-08-08T08:24:48;97869.00;;;20.50
19040;BMP180;9652;49.014;12.052;2023-08-08T08:27:16;97852.00;;;20.60
19040;BMP180;9652;49.014;12.052;2023-08-08T08:29:44;97867.00;;;20.60
19040;BMP180;9652;49.014;12.052;2023-08-08T08:32:11;97852.00;;;20.60
19040;BMP180;9652;49.014;12.052;2023-08-08T08:34:39;97855.00;;;20.60
19040;BMP180;9652;49.014;12.052;2023-08-08T08:37:07;97851.00;;;20.60
19040;BMP180;9652;49.014;12.052;2023-08-08T08:39:34;97843.00;;;20.40
19040;BMP180;9652;49.014;12.052;2023-08-08T08:42:04;97845.00;;;20.70
19040;BMP180;9652;49.014;12.052;2023-08-08T08:44:32;97834.00;;;20.70
19040;BMP180;9652;49.014;12.052;2023-08-08T08:47:02;97844.00;;;20.70
19040;BMP180;9652;49.014;12.052;2023-08-08T08:49:30;97844.00;;;20.70
19040;BMP180;9652;49.014;12.052;2023-08-08T08:52:00;97835.00;;;20.70
19040;BMP180;9652;49.014;12.052;2023-08-08T08:54:28;97838.00;;;20.70
19040;BMP180;9652;49.014;12.052;2023-08-08T08:56:57;97844.00;;;20.80
19040;BMP180;9652;49.014;12.052;2023-08-08T08:59:25;97831.00;;;20.80
19040;BMP180;9652;49.014;12.052;2023-08-08T09:01:53;97826.00;;;20.80
19040;BMP180;9652;49.014;12.052;2023-08-08T09:04:22;97831.00;;;20.90
19040;BMP180;9652;49.014;12.052;2023-08-08T09:06:51;97838.00;;;20.90
19040;BMP180;9652;49.014;12.052;2023-08-08T09:09:19;97825.00;;;20.90
19040;BMP180;9652;49.014;12.052;2023-08-08T09:11:51;97832.00;;;20.90
19040;BMP180;9652;49.014;12.052;2023-08-08T09:14:23;97828.00;;;21.00
19040;BMP180;9652;49.014;12.052;2023-08-08T09:16:52;97826.00;;;21.10
19040;BMP180;9652;49.014;12.052;2023-08-08T09:19:21;97825.00;;;21.20
19040;BMP180;9652;49.014;12.052;2023-08-08T09:21:49;97824.00;;;21.30
19040;BMP180;9652;49.014;12.052;2023-08-08T09:24:18;97813.00;;;21.40
19040;BMP180;9652;49.014;12.052;2023-08-08T09:26:45;97819.00;;;21.40
19040;BMP180;9652;49.014;12.052;2023-08-08T09:29:14;97806.00;;;21.50
19040;BMP180;9652;49.014;12.052;2023-08-08T09:31:41;97819.00;;;21.60
19040;BMP180;9652;49.014;12.052;2023-08-08T09:34:09;97824.00;;;21.80
19040;BMP180;9652;49.014;12.052;2023-08-08T09:36:36;97819.00;;;22.00
19040;BMP180;9652;49.014;12.052;2023-08-08T09:39:04;97812.00;;;22.20
19040;BMP180;9652;49.014;12.052;2023-08-08T09:41:32;97814.00;;;22.40
19040;BMP180;9652;49.014;12.052;2023-08-08T09:44:00;97807.00;;;22.50
19040;BMP180;9652;49.014;12.052;2023-08-08T09:46:30;97804.00;;;22.70
19040;BMP180;9652;49.014;12.052;2023-08-08T09:48:58;97766.00;;;22.80
19040;BMP180;9652;49.014;12.052;2023-08-08T09:51:25;97800.00;;;23.00
19040;BMP180;9652;49.014;12.052;2023-08-08T09:53:55;97789.00;;;23.10
19040;BMP180;9652;49.014;12.052;2023-08-08T09:56:23;97800.00;;;23.20
19040;BMP180;9652;49.014;12.052;2023-08-08T09:58:53;97796.00;;;23.30
19040;BMP180;9652;49.014;12.052;2023-08-08T10:01:20;97741.00;;;23.40
19040;BMP180;9652;49.014;12.052;2023-08-08T10:03:51;97808.00;;;23.40
19040;BMP180;9652;49.014;12.052;2023-08-08T10:06:18;97789.00;;;23.50
19040;BMP180;9652;49.014;12.052;2023-08-08T10:08:46;97797.00;;;23.50
19040;BMP180;9652;49.014;12.052;2023-08-08T10:11:13;97801.00;;;23.50
19040;BMP180;9652;49.014;12.052;2023-08-08T10:13:48;97801.00;;;23.50
19040;BMP180;9652;49.014;12.052;2023-08-08T10:16:18;97799.00;;;23.50
19040;BMP180;9652;49.014;12.052;2023-08-08T10:18:46;97770.00;;;23.60
19040;BMP180;9652;49.014;12.052;2023-08-08T10:21:23;97799.00;;;23.70
19040;BMP180;9652;49.014;12.052;2023-08-08T10:24:02;97794.00;;;23.70
19040;BMP180;9652;49.014;12.052;2023-08-08T10:26:30;97787.00;;;23.80
19040;BMP180;9652;49.014;12.052;2023-08-08T10:28:59;97786.00;;;23.90
19040;BMP180;9652;49.014;12.052;2023-08-08T10:31:34;97783.00;;;24.00
19040;BMP180;9652;49.014;12.052;2023-08-08T10:34:03;97785.00;;;24.00
19040;BMP180;9652;49.014;12.052;2023-08-08T10:36:48;97759.00;;;24.10
19040;BMP180;9652;49.014;12.052;2023-08-08T10:39:18;97751.00;;;24.20
19040;BMP180;9652;49.014;12.052;2023-08-08T10:41:49;97770.00;;;24.30
19040;BMP180;9652;49.014;12.052;2023-08-08T10:44:24;97753.00;;;24.30
19040;BMP180;9652;49.014;12.052;2023-08-08T10:46:53;97744.00;;;24.40
19040;BMP180;9652;49.014;12.052;2023-08-08T10:49:21;97784.00;;;24.40
19040;BMP180;9652;49.014;12.052;2023-08-08T10:51:50;97779.00;;;24.40
19040;BMP180;9652;49.014;12.052;2023-08-08T10:54:19;97780.00;;;24.40
19040;BMP180;9652;49.014;12.052;2023-08-08T10:56:52;97784.00;;;24.40
19040;BMP180;9652;49.014;12.052;2023-08-08T10:59:21;97778.00;;;24.40
19040;BMP180;9652;49.014;12.052;2023-08-08T11:01:52;97782.00;;;24.40
19040;BMP180;9652;49.014;12.052;2023-08-08T11:04:21;97759.00;;;24.10
19040;BMP180;9652;49.014;12.052;2023-08-08T11:06:50;97760.00;;;24.50
19040;BMP180;9652;49.014;12.052;2023-08-08T11:09:17;97733.00;;;24.60
19040;BMP180;9652;49.014;12.052;2023-08-08T11:11:45;97756.00;;;24.70
19040;BMP180;9652;49.014;12.052;2023-08-08T11:14:14;97762.00;;;24.80
19040;BMP180;9652;49.014;12.052;2023-08-08T11:16:44;97758.00;;;24.90
19040;BMP180;9652;49.014;12.052;2023-08-08T11:19:13;97742.00;;;25.00
19040;BMP180;9652;49.014;12.052;2023-08-08T11:21:44;97750.00;;;25.00
19040;BMP180;9652;49.014;12.052;2023-08-08T11:24:12;97753.00;;;25.10
19040;BMP180;9652;49.014;12.052;2023-08-08T11:26:42;97715.00;;;25.10
19040;BMP180;9652;49.014;12.052;2023-08-08T11:29:11;97739.00;;;25.10
19040;BMP180;9652;49.014;12.052;2023-08-08T11:31:38;97757.00;;;25.10
19040;BMP180;9652;49.014;12.052;2023-08-08T11:34:08;97752.00;;;25.20
19040;BMP180;9652;49.014;12.052;2023-08-08T11:36:39;97755.00;;;25.20
19040;BMP180;9652;49.014;12.052;2023-08-08T11:39:07;97745.00;;;25.30
19040;BMP180;9652;49.014;12.052;2023-08-08T11:41:36;97753.00;;;25.40
19040;BMP180;9652;49.014;12.052;2023-08-08T11:44:05;97752.00;;;25.50
19040;BMP180;9652;49.014;12.052;2023-08-08T11:46:32;97746.00;;;25.50
19040;BMP180;9652;49.014;12.052;2023-08-08T11:49:04;97753.00;;;25.50
19040;BMP180;9652;49.014;12.052;2023-08-08T11:51:32;97740.00;;;25.60
19040;BMP180;9652;49.014;12.052;2023-08-08T11:54:03;97746.00;;;25.70
19040;BMP180;9652;49.014;12.052;2023-08-08T11:56:33;97738.00;;;25.70
19040;BMP180;9652;49.014;12.052;2023-08-08T11:59:01;97740.00;;;25.80
19040;BMP180;9652;49.014;12.052;2023-08-08T12:01:31;97750.00;;;25.80
19040;BMP180;9652;49.014;12.052;2023-08-08T12:04:03;97730.00;;;25.80
19040;BMP180;9652;49.014;12.052;2023-08-08T12:06:31;97743.00;;;25.90
19040;BMP180;9652;49.014;12.052;2023-08-08T12:08:58;97742.00;;;25.90
19040;BMP180;9652;49.014;12.052;2023-08-08T12:11:27;97738.00;;;26.00
19040;BMP180;9652;49.014;12.052;2023-08-08T12:14:00;97753.00;;;26.00
19040;BMP180;9652;49.014;12.052;2023-08-08T12:16:29;97743.00;;;26.10
19040;BMP180;9652;49.014;12.052;2023-08-08T12:18:56;97739.00;;;26.10
19040;BMP180;9652;49.014;12.052;2023-08-08T12:21:23;97739.00;;;26.10
19040;BMP180;9652;49.014;12.052;2023-08-08T12:23:51;97736.00;;;26.20
19040;BMP180;9652;49.014;12.052;2023-08-08T12:26:19;97737.00;;;26.30
19040;BMP180;9652;49.014;12.052;2023-08-08T12:28:47;97717.00;;;26.30
19040;BMP180;9652;49.014;12.052;2023-08-08T12:31:16;97738.00;;;26.40
19040;BMP180;9652;49.014;12.052;2023-08-08T12:33:43;97735.00;;;26.40
19040;BMP180;9652;49.014;12.052;2023-08-08T12:36:12;97719.00;;;26.50
19040;BMP180;9652;49.014;12.052;2023-08-08T12:38:40;97737.00;;;26.50
19040;BMP180;9652;49.014;12.052;2023-08-08T12:41:07;97731.00;;;26.50
19040;BMP180;9652;49.014;12.052;2023-08-08T12:43:36;97740.00;;;26.60
19040;BMP180;9652;49.014;12.052;2023-08-08T12:46:04;97729.00;;;26.70
19040;BMP180;9652;49.014;12.052;2023-08-08T12:48:31;97725.00;;;26.70
19040;BMP180;9652;49.014;12.052;2023-08-08T12:50:58;97733.00;;;26.70
19040;BMP180;9652;49.014;12.052;2023-08-08T12:53:25;97722.00;;;26.70
19040;BMP180;9652;49.014;12.052;2023-08-08T12:55:52;97722.00;;;26.70
19040;BMP180;9652;49.014;12.052;2023-08-08T12:58:19;97728.00;;;26.70
19040;BMP180;9652;49.014;12.052;2023-08-08T13:00:47;97722.00;;;26.70
19040;BMP180;9652;49.014;12.052;2023-08-08T13:03:15;97723.00;;;26.80
19040;BMP180;9652;49.014;12.052;2023-08-08T13:05:42;97722.00;;;26.80
19040;BMP180;9652;49.014;12.052;2023-08-08T13:08:09;97726.00;;;26.90
19040;BMP180;9652;49.014;12.052;2023-08-08T13:10:39;97717.00;;;26.90
19040;BMP180;9652;49.014;12.052;2023-08-08T13:13:06;97713.00;;;26.90
19040;BMP180;9652;49.014;12.052;2023-08-08T13:15:34;97723.00;;;26.90
19040;BMP180;9652;49.014;12.052;2023-08-08T13:18:01;97714.00;;;27.00
19040;BMP180;9652;49.014;12.052;2023-08-08T13:20:30;97722.00;;;26.90
19040;BMP180;9652;49.014;12.052;2023-08-08T13:22:57;97724.00;;;27.10
19040;BMP180;9652;49.014;12.052;2023-08-08T13:25:24;97727.00;;;27.10
19040;BMP180;9652;49.014;12.052;2023-08-08T13:27:51;97713.00;;;27.20
19040;BMP180;9652;49.014;12.052;2023-08-08T13:30:18;97710.00;;;27.30
19040;BMP180;9652;49.014;12.052;2023-08-08T13:32:47;97716.00;;;27.40
19040;BMP180;9652;49.014;12.052;2023-08-08T13:35:14;97718.00;;;27.50
19040;BMP180;9652;49.014;12.052;2023-08-08T13:37:43;97692.00;;;27.60
19040;BMP180;9652;49.014;12.052;2023-08-08T13:40:11;97708.00;;;27.70
19040;BMP180;9652;49.014;12.052;2023-08-08T13:42:38;97707.00;;;27.80
19040;BMP180;9652;49.014;12.052;2023-08-08T13:45:07;97708.00;;;28.00
19040;BMP180;9652;49.014;12.052;2023-08-08T13:47:34;97710.00;;;28.10
19040;BMP180;9652;49.014;12.052;2023-08-08T13:50:01;97707.00;;;28.30
19040;BMP180;9652;49.014;12.052;2023-08-08T13:52:29;97713.00;;;28.40
19040;BMP180;9652;49.014;12.052;2023-08-08T13:55:00;97711.00;;;28.60
19040;BMP180;9652;49.014;12.052;2023-08-08T13:57:28;97688.00;;;28.70
19040;BMP180;9652;49.014;12.052;2023-08-08T13:59:55;97714.00;;;28.70
19040;BMP180;9652;49.014;12.052;2023-08-08T14:02:23;97699.00;;;28.70
19040;BMP180;9652;49.014;12.052;2023-08-08T14:04:50;97705.00;;;28.70
19040;BMP180;9652;49.014;12.052;2023-08-08T14:07:19;97699.00;;;28.70
19040;BMP180;9652;49.014;12.052;2023-08-08T14:09:47;97715.00;;;28.60
19040;BMP180;9652;49.014;12.052;2023-08-08T14:12:15;97711.00;;;28.70
19040;BMP180;9652;49.014;12.052;2023-08-08T14:14:42;97692.00;;;28.70